createdAt,value
2023-03-31T00:02:45.954Z,3.55
2023-03-31T00:07:48.551Z,5.03
2023-03-31T00:12:50.617Z,4.93
2023-03-31T00:17:52.985Z,5.38
2023-03-31T00:22:57.527Z,4.43
2023-03-31T00:27:59.642Z,3.65
2023-03-31T00:33:02.982Z,4.18
2023-03-31T00:38:08.886Z,4.38
2023-03-31T00:43:25.448Z,3.95
2023-03-31T00:48:27.955Z,3.63
2023-03-31T00:53:32.522Z,3.35
2023-03-31T00:58:34.759Z,2.72
2023-03-31T01:03:38.428Z,2.97
2023-03-31T01:08:41.675Z,3.28
2023-03-31T01:13:45.843Z,3.20
2023-03-31T01:18:49.938Z,3.45
2023-03-31T01:24:24.091Z,2.88
2023-03-31T01:30:03.676Z,3.10
2023-03-31T01:35:27.032Z,2.35
2023-03-31T01:40:59.070Z,2.78
2023-03-31T01:46:11.044Z,2.83
2023-03-31T01:51:17.998Z,3.25
2023-03-31T01:56:33.276Z,3.30
2023-03-31T02:01:41.863Z,3.15
2023-03-31T02:06:52.821Z,2.40
2023-03-31T02:11:56.982Z,2.60
2023-03-31T02:17:03.736Z,2.80
2023-03-31T02:22:08.506Z,2.30
2023-03-31T02:27:20.944Z,2.45
2023-03-31T02:32:38.855Z,1.88
2023-03-31T02:37:42.495Z,2.00
2023-03-31T02:42:44.594Z,2.05
2023-03-31T02:47:46.686Z,1.63
2023-03-31T02:53:03.460Z,1.42
2023-03-31T02:58:19.208Z,1.85
2023-03-31T03:03:42.502Z,2.75
2023-03-31T03:09:26.379Z,2.60
2023-03-31T03:14:47.988Z,2.92
2023-03-31T03:20:00.326Z,2.88
2023-03-31T03:25:02.649Z,3.00
2023-03-31T03:30:06.847Z,2.65
2023-03-31T03:35:09.815Z,2.88
2023-03-31T03:40:12.135Z,2.85
2023-03-31T03:45:14.227Z,2.83
2023-03-31T03:50:16.689Z,2.40
2023-03-31T03:55:18.782Z,2.83
2023-03-31T04:00:21.927Z,2.15
2023-03-31T04:05:24.187Z,2.50
2023-03-31T04:10:26.323Z,1.80
2023-03-31T04:15:28.568Z,1.70
2023-03-31T04:20:31.818Z,2.28
2023-03-31T04:25:38.996Z,2.03
2023-03-31T04:30:41.073Z,1.85
2023-03-31T04:35:52.716Z,1.92
2023-03-31T04:40:56.194Z,1.55
2023-03-31T04:45:58.285Z,2.35
2023-03-31T04:51:00.438Z,2.50
2023-03-31T04:56:03.968Z,2.53
2023-03-31T05:01:06.709Z,2.28
2023-03-31T05:06:09.465Z,1.75
2023-03-31T05:11:11.728Z,2.30
2023-03-31T05:16:14.759Z,1.73
2023-03-31T05:21:19.265Z,2.15
2023-03-31T05:26:22.958Z,0.88
2023-03-31T05:31:25.009Z,1.40
2023-03-31T05:36:27.263Z,1.17
2023-03-31T05:41:29.441Z,1.48
2023-03-31T05:46:31.776Z,2.85
2023-03-31T05:51:34.621Z,1.15
2023-03-31T05:56:36.735Z,1.65
2023-03-31T06:01:39.030Z,1.80
2023-03-31T06:06:42.975Z,1.33
2023-03-31T06:11:46.043Z,1.50
2023-03-31T06:16:48.260Z,1.95
2023-03-31T06:21:51.379Z,1.85
2023-03-31T06:26:54.026Z,1.80
2023-03-31T06:31:56.670Z,1.83
2023-03-31T06:36:58.709Z,1.60
2023-03-31T06:42:00.778Z,1.48
2023-03-31T06:47:03.824Z,1.70
2023-03-31T06:52:06.237Z,2.40
2023-03-31T06:57:08.598Z,1.92
2023-03-31T07:02:11.355Z,2.67
2023-03-31T07:07:13.523Z,2.38
2023-03-31T07:12:15.658Z,3.33
2023-03-31T07:17:17.723Z,2.95
2023-03-31T07:22:19.878Z,3.72
2023-03-31T07:27:23.579Z,3.13
2023-03-31T07:32:29.116Z,3.10
2023-03-31T07:37:37.029Z,3.15
2023-03-31T07:42:39.225Z,3.78
2023-03-31T07:47:41.373Z,3.85
2023-03-31T07:52:46.710Z,4.00
2023-03-31T07:57:51.242Z,4.22
2023-03-31T08:02:53.528Z,3.42
2023-03-31T08:07:55.580Z,3.45
2023-03-31T08:12:57.609Z,3.35
2023-03-31T08:18:00.158Z,4.18
2023-03-31T08:23:02.393Z,4.28
2023-03-31T08:28:04.515Z,3.63
2023-03-31T08:33:07.874Z,4.05
2023-03-31T08:38:10.054Z,3.50
2023-03-31T08:43:22.415Z,4.75
2023-03-31T08:48:29.279Z,4.22
2023-03-31T08:53:36.861Z,3.53
2023-03-31T08:58:45.062Z,4.22
2023-03-31T09:04:14.272Z,3.25
2023-03-31T09:09:55.633Z,3.58
2023-03-31T09:15:05.212Z,3.15
2023-03-31T09:20:16.977Z,3.25
2023-03-31T09:25:23.592Z,3.08
2023-03-31T09:30:35.364Z,2.90
2023-03-31T09:35:37.967Z,3.40
2023-03-31T09:40:40.481Z,2.42
2023-03-31T09:45:52.090Z,2.75
2023-03-31T09:51:07.877Z,2.78
2023-03-31T09:56:11.527Z,2.90
2023-03-31T10:01:15.583Z,2.80
2023-03-31T10:06:18.432Z,2.67
2023-03-31T10:11:20.679Z,2.35
2023-03-31T10:16:28.784Z,2.28
2023-03-31T10:21:36.623Z,3.28
2023-03-31T10:26:40.547Z,2.85
2023-03-31T10:31:43.186Z,3.53
2023-03-31T10:36:51.764Z,2.72
2023-03-31T10:41:53.991Z,3.00
2023-03-31T10:47:07.073Z,2.78
2023-03-31T10:52:21.488Z,3.00
2023-03-31T10:57:35.962Z,3.17
2023-03-31T11:02:59.773Z,3.08
2023-03-31T11:08:20.598Z,3.15
2023-03-31T11:13:38.665Z,3.13
2023-03-31T11:19:03.414Z,3.28
2023-03-31T11:24:19.853Z,2.95
2023-03-31T11:29:41.855Z,3.15
2023-03-31T11:35:00.600Z,3.00
2023-03-31T11:40:23.937Z,3.38
2023-03-31T11:45:32.133Z,2.78
2023-03-31T11:50:39.866Z,3.90
2023-03-31T11:55:43.215Z,2.90
2023-03-31T12:00:51.702Z,3.38
2023-03-31T12:05:58.877Z,3.10
2023-03-31T12:11:08.694Z,2.45
2023-03-31T12:16:24.016Z,2.38
2023-03-31T12:21:28.534Z,2.78
2023-03-31T12:26:51.139Z,2.33
2023-03-31T12:31:57.366Z,2.33
2023-03-31T12:37:10.999Z,3.63
2023-03-31T12:42:46.498Z,2.50
2023-03-31T12:48:04.352Z,2.75
2023-03-31T12:53:44.723Z,3.15
2023-03-31T12:58:46.978Z,1.92
2023-03-31T13:03:51.995Z,2.20
2023-03-31T13:09:03.542Z,1.60
2023-03-31T13:14:28.614Z,1.80
2023-03-31T13:19:35.771Z,1.40
2023-03-31T13:24:38.028Z,1.75
2023-03-31T13:29:43.971Z,1.50
2023-03-31T13:35:04.611Z,1.42
2023-03-31T13:40:28.060Z,1.15
2023-03-31T13:45:51.177Z,1.20
2023-03-31T13:51:17.932Z,1.02
2023-03-31T13:56:41.663Z,1.25
2023-03-31T14:02:08.367Z,1.40
2023-03-31T14:07:18.220Z,1.88
2023-03-31T14:12:35.804Z,1.00
2023-03-31T14:17:40.682Z,1.35
2023-03-31T14:22:46.245Z,1.58
2023-03-31T14:27:58.364Z,1.00
2023-03-31T14:33:16.513Z,1.00
2023-03-31T14:38:21.413Z,1.63
2023-03-31T14:43:29.672Z,1.13
2023-03-31T14:48:34.711Z,1.13
2023-03-31T14:53:36.880Z,1.00
2023-03-31T14:58:43.656Z,0.70
2023-03-31T15:03:46.901Z,0.82
2023-03-31T15:08:49.766Z,0.85
2023-03-31T15:14:04.400Z,0.90
2023-03-31T15:19:21.147Z,0.80
2023-03-31T15:24:23.918Z,0.80
2023-03-31T15:29:51.119Z,0.73
2023-03-31T15:34:54.632Z,1.30
2023-03-31T15:39:59.773Z,0.88
2023-03-31T15:45:35.871Z,0.80
2023-03-31T15:50:39.012Z,0.90
2023-03-31T16:00:54.292Z,0.77
2023-03-31T16:05:58.660Z,0.70
2023-03-31T16:11:05.248Z,0.80
2023-03-31T16:16:13.682Z,1.25
2023-03-31T16:21:22.511Z,0.70
2023-03-31T16:26:27.966Z,0.90
2023-03-31T16:31:40.166Z,0.85
2023-03-31T16:36:42.817Z,1.40
2023-03-31T16:41:44.998Z,1.17
2023-03-31T16:46:47.099Z,1.00
2023-03-31T16:51:49.268Z,1.42
2023-03-31T16:56:51.809Z,1.65
2023-03-31T17:01:53.927Z,1.80
2023-03-31T17:06:56.110Z,1.90
2023-03-31T17:11:58.303Z,1.70
2023-03-31T17:17:00.575Z,2.05
2023-03-31T17:22:03.579Z,1.88
2023-03-31T17:27:05.833Z,1.80
2023-03-31T17:32:07.870Z,2.28
2023-03-31T17:37:10.055Z,2.08
2023-03-31T17:42:13.483Z,2.50
2023-03-31T17:47:16.640Z,2.38
2023-03-31T17:52:18.768Z,2.05
2023-03-31T17:57:20.870Z,2.10
2023-03-31T18:02:24.848Z,1.83
2023-03-31T18:07:27.200Z,2.10
2023-03-31T18:12:29.648Z,2.40
2023-03-31T18:17:31.761Z,2.53
2023-03-31T18:22:33.926Z,2.80
2023-03-31T18:27:36.153Z,3.05
2023-03-31T18:32:38.526Z,2.88
2023-03-31T18:37:40.842Z,2.75
2023-03-31T18:42:42.935Z,2.55
2023-03-31T18:47:44.978Z,2.63
2023-03-31T18:52:47.738Z,3.03
2023-03-31T18:57:51.238Z,2.60
2023-03-31T19:02:53.610Z,3.08
2023-03-31T19:07:56.349Z,3.20
2023-03-31T19:12:58.878Z,4.20
2023-03-31T19:18:01.364Z,4.13
2023-03-31T19:23:04.206Z,5.25
2023-03-31T19:28:07.072Z,4.60
2023-03-31T19:33:09.282Z,4.65
2023-03-31T19:38:11.847Z,3.63
2023-03-31T19:43:23.077Z,4.70
2023-03-31T19:48:26.531Z,4.65
2023-03-31T19:53:28.727Z,4.28
2023-03-31T19:58:33.092Z,4.93
2023-03-31T20:03:35.518Z,4.70
2023-03-31T20:08:41.490Z,3.70
2023-03-31T20:13:44.644Z,4.00
2023-03-31T20:18:55.598Z,3.80
2023-03-31T20:23:58.928Z,4.32
2023-03-31T20:29:02.792Z,4.43
2023-03-31T20:34:08.542Z,3.80
2023-03-31T20:39:12.948Z,3.97
2023-03-31T20:44:15.763Z,4.10
2023-03-31T20:49:18.008Z,4.28
2023-03-31T20:54:20.089Z,3.58
2023-03-31T20:59:23.033Z,3.90
2023-03-31T21:04:25.541Z,3.88
2023-03-31T21:09:27.650Z,4.20
2023-03-31T21:14:29.993Z,4.13
2023-03-31T21:19:32.138Z,4.57
2023-03-31T21:24:35.068Z,4.43
2023-03-31T21:29:37.338Z,4.35
2023-03-31T21:34:39.527Z,4.32
2023-03-31T21:39:41.980Z,4.35
2023-03-31T21:44:44.085Z,4.35
2023-03-31T21:49:46.067Z,4.67
2023-03-31T21:54:48.293Z,4.47
2023-03-31T21:59:50.824Z,4.85
2023-03-31T22:04:53.207Z,5.30
2023-03-31T22:09:55.430Z,4.70
2023-03-31T22:14:57.745Z,4.70
2023-03-31T22:19:59.722Z,4.45
2023-03-31T22:25:01.714Z,4.53
2023-03-31T22:30:04.564Z,4.60
2023-03-31T22:35:07.140Z,5.13
2023-03-31T22:40:09.953Z,4.40
2023-03-31T22:45:11.990Z,4.50
2023-03-31T22:50:13.997Z,4.57
2023-03-31T22:55:16.862Z,4.90
2023-03-31T23:00:19.221Z,4.80
2023-03-31T23:05:24.118Z,4.97
2023-03-31T23:10:27.096Z,4.82
2023-03-31T23:15:29.236Z,5.75
2023-03-31T23:20:31.664Z,6.07
2023-03-31T23:25:33.931Z,6.50
2023-03-31T23:30:36.114Z,6.70
2023-03-31T23:35:38.290Z,6.95
2023-03-31T23:40:40.321Z,6.90
2023-03-31T23:45:43.108Z,7.43
2023-03-31T23:50:45.600Z,7.38
2023-03-31T23:55:59.627Z,7.65
